Chupungnyong, South Korea

1:59 PM KST on January 26, 2015 (GMT +0900)
Chongju International | Change Station
CLOSE
Current Station
Airport
Location: Cheongju AB,
Elevation: 190 ft
Nearby Weather Stations

Elev 190 ft 36.72 °N, 127.50 °E | Updated 30 minutes ago

Light Drizzle
Light Drizzle Fog
43 °F
Feels Like 43 °F
N
2
Wind Variable Wind from West

Today
High -- | Low -- °F
--% Chance of Precip.
Yesterday
High -- | Low -- °F
Precip. -- in
7:33 AM 5:47 PM
Waxing Crescent, 39% visible
Pressure 30.06 in
Visibility 0.5 miles
Clouds Mostly Cloudy 400 ft
Overcast 1000 ft
Dew Point 41 °F
Humidity 93%
Rainfall 0.00 in
Snow Depth Not available.
UV 1 out of 12
Pollen Not available.
Air Quality Not available.
Flu Activity Not available.
SPECI RKTU 260429Z 28002KT 0800 R24/1300 -DZ FG SCT000 BKN004 OVC010 06/05 Q1018 NOSIG

More Conditions Fewer Conditions

Pressure 30.06 in
Visibility 0.5 miles
Clouds Mostly Cloudy 400 ft
Overcast 1000 ft
Dew Point 41 °F
Humidity 93%
Rainfall 0.00 in
Snow Depth Not available.
UV 1 out of 12
Pollen Not available.
Air Quality Not available.
Flu Activity Not available.
SPECI RKTU 260429Z 28002KT 0800 R24/1300 -DZ FG SCT000 BKN004 OVC010 06/05 Q1018 NOSIG

More Conditions Fewer Conditions

10-Day Weather Forecast

Almanac

Astronomy

Jan. 26, 2015 Rise Set
Actual Time
Civil Twilight
Nautical Twilight
Astronomical Twilight
Moon
Length of Visible Light
Length of Day
Tomorrow will be .
, % of the Moon is Illuminated

Today's Extremes

Country Highs Country Lows

Community

WunderPhotos

Upload Photos

1,790,139 photos uploaded!

WunderBlogs® & News

Nearby

Air Quality

  Air Quality AQ Index Pollutant
Not available.

Snow Depth

Station Depth Elevation

Earthquake Activity

City Distance Mag. Time & Date
Minimum magnitude displayed is 2.5.

Coastal Water Temperatures

Place Temperature

Nearby Weather Stations